createdAt,value
2019-01-26T00:01:10.803Z,92.70
2019-01-26T00:03:43.104Z,92.80
2019-01-26T00:06:15.185Z,93.00
2019-01-26T00:08:47.182Z,93.30
2019-01-26T00:11:19.320Z,93.60
2019-01-26T00:13:51.495Z,94.00
2019-01-26T00:16:23.496Z,94.10
2019-01-26T00:18:55.754Z,94.40
2019-01-26T00:21:27.767Z,94.80
2019-01-26T00:23:59.757Z,95.00
2019-01-26T00:26:36.230Z,94.80
2019-01-26T00:29:05.676Z,95.00
2019-01-26T00:31:37.677Z,95.60
2019-01-26T00:34:09.679Z,95.70
2019-01-26T00:36:41.687Z,95.90
2019-01-26T00:39:14.411Z,96.20
2019-01-26T00:41:46.477Z,96.80
2019-01-26T00:44:20.525Z,96.70
2019-01-26T00:46:52.579Z,97.20
2019-01-26T00:49:24.572Z,97.40
2019-01-26T00:51:56.578Z,97.30
2019-01-26T00:54:28.665Z,97.30
2019-01-26T00:57:00.677Z,97.30
2019-01-26T00:59:32.673Z,97.60
2019-01-26T01:02:05.082Z,97.90
2019-01-26T01:04:37.082Z,98.00
2019-01-26T01:07:09.092Z,98.00
2019-01-26T01:09:41.097Z,98.20
2019-01-26T01:12:13.205Z,98.30
2019-01-26T01:14:46.135Z,98.20
2019-01-26T01:17:25.337Z,98.30
2019-01-26T01:19:57.411Z,98.60
2019-01-26T01:22:29.416Z,98.60
2019-01-26T01:25:01.410Z,98.90
2019-01-26T01:27:33.489Z,99.10
2019-01-26T01:30:06.944Z,99.00
2019-01-26T01:32:38.947Z,99.00
2019-01-26T01:35:11.051Z,98.90
2019-01-26T01:37:43.362Z,98.90
2019-01-26T01:40:16.147Z,98.90
2019-01-26T01:42:48.318Z,98.70
2019-01-26T01:45:21.230Z,98.80
2019-01-26T01:47:53.356Z,98.80
2019-01-26T01:50:25.457Z,99.10
2019-01-26T01:52:57.454Z,98.80
2019-01-26T01:55:29.457Z,98.80
2019-01-26T01:58:01.465Z,99.00
2019-01-26T02:00:33.452Z,99.00
2019-01-26T02:03:05.534Z,99.00
2019-01-26T02:05:37.523Z,98.90
2019-01-26T02:08:09.522Z,99.10
2019-01-26T02:10:41.663Z,99.10
2019-01-26T02:13:13.661Z,99.10
2019-01-26T02:15:45.667Z,99.00
2019-01-26T02:18:17.738Z,98.90
2019-01-26T02:20:49.808Z,99.20
2019-01-26T02:23:21.801Z,99.10
2019-01-26T02:25:53.812Z,99.20
2019-01-26T02:28:25.867Z,99.10
2019-01-26T02:30:57.867Z,99.10
2019-01-26T02:33:29.881Z,99.00
2019-01-26T02:36:01.872Z,99.20
2019-01-26T02:38:33.943Z,98.90
2019-01-26T02:41:05.936Z,98.90
2019-01-26T02:43:37.938Z,98.90
2019-01-26T02:46:09.934Z,98.90
2019-01-26T02:48:42.547Z,99.10
2019-01-26T02:51:14.536Z,99.30
2019-01-26T02:53:46.534Z,99.20
2019-01-26T02:56:18.535Z,99.10
2019-01-26T02:58:50.535Z,99.00
2019-01-26T03:01:22.525Z,99.50
2019-01-26T03:03:54.529Z,99.30
2019-01-26T03:06:26.592Z,99.10
2019-01-26T03:08:58.978Z,99.10
2019-01-26T03:11:31.005Z,99.40
2019-01-26T03:14:03.004Z,99.30
2019-01-26T03:16:35.440Z,99.00
2019-01-26T03:19:07.876Z,99.10
2019-01-26T03:21:40.033Z,99.00
2019-01-26T03:24:12.032Z,98.80
2019-01-26T03:26:44.102Z,99.10
2019-01-26T03:29:16.102Z,99.00
2019-01-26T03:31:48.181Z,98.90
2019-01-26T03:34:20.238Z,99.00
2019-01-26T03:36:52.230Z,99.40
2019-01-26T03:39:24.299Z,99.10
2019-01-26T03:41:56.288Z,99.20
2019-01-26T03:44:28.357Z,99.30
2019-01-26T03:47:00.340Z,99.10
2019-01-26T03:49:32.334Z,99.30
2019-01-26T03:52:04.326Z,99.40
2019-01-26T03:54:36.423Z,99.30
2019-01-26T03:57:08.494Z,99.40
2019-01-26T03:59:40.497Z,99.20
2019-01-26T04:02:12.489Z,99.50
2019-01-26T04:04:44.576Z,99.40
2019-01-26T04:07:16.568Z,99.30
2019-01-26T04:09:48.735Z,99.30
2019-01-26T04:12:20.764Z,99.40
2019-01-26T04:14:52.767Z,99.50
2019-01-26T04:17:24.836Z,99.40
2019-01-26T04:19:56.834Z,99.50
2019-01-26T04:22:29.647Z,99.90
2019-01-26T04:25:01.606Z,99.80
2019-01-26T04:27:33.642Z,99.90
2019-01-26T04:30:07.697Z,99.60
2019-01-26T04:32:39.698Z,99.80
2019-01-26T04:35:12.200Z,99.50
2019-01-26T04:37:45.392Z,99.40
2019-01-26T04:40:18.980Z,99.50
2019-01-26T04:42:50.963Z,99.40
2019-01-26T04:45:24.801Z,99.50
2019-01-26T04:47:56.869Z,99.60
2019-01-26T04:50:28.971Z,99.60
2019-01-26T04:53:00.958Z,99.60
2019-01-26T04:55:33.050Z,99.60
2019-01-26T04:58:05.039Z,99.50
2019-01-26T05:00:37.025Z,99.80
2019-01-26T05:03:09.196Z,99.60
2019-01-26T05:05:41.186Z,99.70
2019-01-26T05:08:13.178Z,99.60
2019-01-26T05:10:45.209Z,99.40
2019-01-26T05:13:17.199Z,99.40
2019-01-26T05:15:49.231Z,99.50
2019-01-26T05:18:21.233Z,99.60
2019-01-26T05:20:53.276Z,99.50
2019-01-26T05:23:25.309Z,99.90
2019-01-26T05:25:57.183Z,99.60
2019-01-26T05:28:29.078Z,99.50
2019-01-26T05:31:00.986Z,99.50
2019-01-26T05:33:32.915Z,99.20
2019-01-26T05:36:04.823Z,99.50
2019-01-26T05:38:36.728Z,99.40
2019-01-26T05:41:08.626Z,99.60
2019-01-26T05:43:40.533Z,99.60
2019-01-26T05:46:12.445Z,99.40
2019-01-26T05:48:45.927Z,99.50
2019-01-26T05:51:17.851Z,99.20
2019-01-26T05:53:49.751Z,99.10
2019-01-26T05:56:21.685Z,99.20
2019-01-26T05:58:53.699Z,99.10
2019-01-26T06:01:25.729Z,98.90
2019-01-26T06:03:57.825Z,98.60
2019-01-26T06:06:29.826Z,98.80
2019-01-26T06:09:01.778Z,99.00
2019-01-26T06:11:33.715Z,98.90
2019-01-26T06:14:06.227Z,99.00
2019-01-26T06:16:38.361Z,98.90
2019-01-26T06:19:10.568Z,98.70
2019-01-26T06:21:42.563Z,98.50
2019-01-26T06:24:14.548Z,98.70
2019-01-26T06:26:46.860Z,98.20
2019-01-26T06:29:18.727Z,98.30
2019-01-26T06:31:50.642Z,98.50
2019-01-26T06:34:24.773Z,98.50
2019-01-26T06:36:56.671Z,98.40
2019-01-26T06:39:28.611Z,98.50
2019-01-26T06:42:00.476Z,98.40
2019-01-26T06:44:32.582Z,98.20
2019-01-26T06:47:04.595Z,97.80
2019-01-26T06:49:36.517Z,97.80
2019-01-26T06:52:08.422Z,97.90
2019-01-26T06:54:40.334Z,97.80
2019-01-26T06:57:12.368Z,97.80
2019-01-26T06:59:44.356Z,97.90
2019-01-26T07:02:16.331Z,97.90
2019-01-26T07:05:15.574Z,98.40
2019-01-26T07:07:47.483Z,98.50
2019-01-26T07:10:19.474Z,98.40
2019-01-26T07:12:51.506Z,98.40
2019-01-26T07:15:23.410Z,98.50
2019-01-26T07:17:55.327Z,98.70
2019-01-26T07:20:27.195Z,98.20
2019-01-26T07:22:59.123Z,98.50
2019-01-26T07:25:30.992Z,98.60
2019-01-26T07:28:02.907Z,98.30
2019-01-26T07:30:34.872Z,98.70
2019-01-26T07:33:06.898Z,98.60
2019-01-26T07:35:38.764Z,98.60
2019-01-26T07:38:13.740Z,98.70
2019-01-26T07:40:44.358Z,98.80
2019-01-26T07:43:16.260Z,98.90
2019-01-26T07:45:48.174Z,98.80
2019-01-26T07:48:20.084Z,98.80
2019-01-26T07:50:52.439Z,98.90
2019-01-26T07:53:24.555Z,98.70
2019-01-26T07:55:56.445Z,98.80
2019-01-26T07:58:28.362Z,99.10
2019-01-26T08:01:01.253Z,99.00
2019-01-26T08:03:33.162Z,99.30
2019-01-26T08:06:05.038Z,99.50
2019-01-26T08:08:37.043Z,99.70
2019-01-26T08:11:09.050Z,99.20
2019-01-26T08:13:40.969Z,99.50
2019-01-26T08:16:15.677Z,99.60
2019-01-26T08:18:47.591Z,99.70
2019-01-26T08:21:21.307Z,99.70
2019-01-26T08:23:53.220Z,99.70
2019-01-26T08:26:25.127Z,99.60
2019-01-26T08:28:57.029Z,99.50
2019-01-26T08:31:28.949Z,99.50
2019-01-26T08:34:00.855Z,99.20
2019-01-26T08:36:32.902Z,99.10
2019-01-26T08:39:06.992Z,99.00
2019-01-26T08:41:38.991Z,98.90
2019-01-26T08:44:10.903Z,99.10
2019-01-26T08:46:42.809Z,98.90
2019-01-26T08:49:14.724Z,99.40
2019-01-26T08:51:47.093Z,99.40
2019-01-26T08:54:19.088Z,99.30
2019-01-26T08:56:51.130Z,99.40
2019-01-26T08:59:23.029Z,99.60
2019-01-26T09:02:04.099Z,99.80
2019-01-26T09:04:36.123Z,99.70
2019-01-26T09:07:08.404Z,99.50
2019-01-26T09:09:40.304Z,99.60
2019-01-26T09:12:12.226Z,99.40
2019-01-26T09:14:44.292Z,99.20
2019-01-26T09:17:16.258Z,99.20
2019-01-26T09:19:48.282Z,99.20
2019-01-26T09:22:20.252Z,99.20
2019-01-26T09:24:52.204Z,99.20
2019-01-26T09:27:24.211Z,99.50
2019-01-26T09:29:56.122Z,99.10
2019-01-26T09:32:28.157Z,99.20
2019-01-26T09:35:00.219Z,99.00
2019-01-26T09:37:32.306Z,98.90
2019-01-26T09:40:04.512Z,98.60
2019-01-26T09:42:36.598Z,98.70
2019-01-26T09:45:12.553Z,98.50
2019-01-26T09:47:44.591Z,98.80
2019-01-26T09:50:17.625Z,99.00
2019-01-26T09:52:49.738Z,99.10
2019-01-26T09:55:23.956Z,99.00
2019-01-26T09:57:55.864Z,99.20
2019-01-26T10:00:27.818Z,99.20
2019-01-26T10:02:59.731Z,99.10
2019-01-26T10:05:31.648Z,99.40
2019-01-26T10:08:03.552Z,99.40
2019-01-26T10:10:35.587Z,99.20
2019-01-26T10:13:07.717Z,99.30
2019-01-26T10:15:39.658Z,99.70
2019-01-26T10:18:11.831Z,99.90
2019-01-26T10:20:43.934Z,99.80
2019-01-26T10:23:15.943Z,99.90
2019-01-26T10:25:48.777Z,99.90
2019-01-26T10:28:20.952Z,99.90
2019-01-26T10:30:56.163Z,99.90
2019-01-26T10:33:28.106Z,99.90
2019-01-26T10:36:18.993Z,99.90
2019-01-26T10:38:58.289Z,99.90
2019-01-26T10:41:45.312Z,99.90
2019-01-26T10:44:23.970Z,99.90
2019-01-26T10:46:55.988Z,99.90
2019-01-26T10:49:27.997Z,99.90
2019-01-26T10:51:59.922Z,99.90
2019-01-26T10:54:31.833Z,99.90
2019-01-26T10:57:03.960Z,99.90
2019-01-26T10:59:35.971Z,99.90
2019-01-26T11:02:08.511Z,99.90
2019-01-26T11:04:40.414Z,99.90
2019-01-26T11:07:12.329Z,99.90
2019-01-26T11:09:44.301Z,99.90
2019-01-26T11:12:16.212Z,99.90
2019-01-26T11:14:48.192Z,99.90
2019-01-26T11:17:20.107Z,99.90
2019-01-26T11:19:52.008Z,99.90
2019-01-26T11:22:24.015Z,99.90
2019-01-26T11:24:55.919Z,99.90
2019-01-26T11:27:27.830Z,99.90
2019-01-26T11:29:59.733Z,99.90
2019-01-26T11:32:31.644Z,99.90
2019-01-26T11:35:03.556Z,99.90
2019-01-26T11:37:35.472Z,99.90
2019-01-26T11:40:27.255Z,99.90
2019-01-26T11:42:59.171Z,99.90
2019-01-26T11:46:04.834Z,99.90
2019-01-26T11:48:40.518Z,99.90
2019-01-26T11:51:21.623Z,99.90
2019-01-26T11:53:53.825Z,99.90
2019-01-26T11:56:56.506Z,99.90
2019-01-26T11:59:28.476Z,99.90
2019-01-26T12:02:29.846Z,99.90
2019-01-26T12:05:26.559Z,99.90
2019-01-26T12:07:58.418Z,99.90
2019-01-26T12:10:30.322Z,99.90
2019-01-26T12:13:02.195Z,99.90
2019-01-26T12:15:34.144Z,99.90
2019-01-26T12:18:06.120Z,99.90
2019-01-26T12:20:38.040Z,99.90
2019-01-26T12:23:10.034Z,99.90
2019-01-26T12:25:41.905Z,99.90
2019-01-26T12:28:13.875Z,99.90
2019-01-26T12:30:45.783Z,99.90
2019-01-26T12:33:17.681Z,99.90
2019-01-26T12:35:49.664Z,99.90
2019-01-26T12:38:23.529Z,99.90
2019-01-26T12:40:55.437Z,99.90
2019-01-26T12:43:27.307Z,99.90
2019-01-26T12:45:59.212Z,99.90
2019-01-26T12:48:31.157Z,99.90
2019-01-26T12:51:03.070Z,99.90
2019-01-26T12:53:35.010Z,99.90
2019-01-26T12:56:08.459Z,99.90
2019-01-26T12:58:40.366Z,99.90
2019-01-26T13:01:12.517Z,99.90
2019-01-26T13:03:44.532Z,99.90
2019-01-26T13:06:16.433Z,99.90
2019-01-26T13:08:48.305Z,99.90
2019-01-26T13:11:27.767Z,99.90
2019-01-26T13:13:59.778Z,99.90
2019-01-26T13:16:31.695Z,99.90
2019-01-26T13:19:03.572Z,99.90
2019-01-26T13:21:35.592Z,99.90
2019-01-26T13:24:08.190Z,99.90
2019-01-26T13:26:40.206Z,99.90
2019-01-26T13:29:12.289Z,99.90
2019-01-26T13:31:44.351Z,99.90
2019-01-26T13:34:16.340Z,99.90
2019-01-26T13:36:48.336Z,99.90
2019-01-26T13:39:20.501Z,99.90
2019-01-26T13:41:52.497Z,99.90
2019-01-26T13:44:24.474Z,99.90
2019-01-26T13:46:56.462Z,99.90
2019-01-26T13:49:28.309Z,99.90
2019-01-26T13:52:00.229Z,99.90
2019-01-26T13:54:32.134Z,99.90
2019-01-26T13:57:04.147Z,99.90
2019-01-26T13:59:36.045Z,99.90
2019-01-26T14:02:08.357Z,99.90
2019-01-26T14:04:40.266Z,99.90
2019-01-26T14:07:12.215Z,99.90
2019-01-26T14:09:44.127Z,99.90
2019-01-26T14:12:16.310Z,99.90
2019-01-26T14:14:48.300Z,99.90
2019-01-26T14:17:20.454Z,99.90
2019-01-26T14:19:52.435Z,99.90
2019-01-26T14:22:25.724Z,99.90
2019-01-26T14:24:57.895Z,99.90
2019-01-26T14:27:29.804Z,99.90
2019-01-26T14:30:01.713Z,99.90
2019-01-26T14:32:33.628Z,99.90
2019-01-26T14:35:06.459Z,99.90
2019-01-26T14:37:38.579Z,99.90
2019-01-26T14:40:11.376Z,99.90
2019-01-26T14:42:43.285Z,99.70
2019-01-26T14:45:15.863Z,99.90
2019-01-26T14:47:47.783Z,99.80
2019-01-26T14:50:19.959Z,99.70
2019-01-26T14:52:51.964Z,99.80
2019-01-26T14:55:25.303Z,99.90
2019-01-26T14:57:57.390Z,99.90
2019-01-26T15:00:32.181Z,99.90
2019-01-26T15:03:04.357Z,99.80
2019-01-26T15:05:36.368Z,99.80
2019-01-26T15:08:08.285Z,99.90
2019-01-26T15:10:40.246Z,99.90
2019-01-26T15:13:12.254Z,99.90
2019-01-26T15:15:44.350Z,99.90
2019-01-26T15:18:16.268Z,99.90
2019-01-26T15:20:48.201Z,99.90
2019-01-26T15:23:20.214Z,99.90
2019-01-26T15:25:52.117Z,99.90
2019-01-26T15:28:24.017Z,99.90
2019-01-26T15:30:56.284Z,99.90
2019-01-26T15:33:28.190Z,99.90
2019-01-26T15:36:00.089Z,99.90
2019-01-26T15:38:32.102Z,99.90
2019-01-26T15:41:04.019Z,99.90
2019-01-26T15:43:35.933Z,99.90
2019-01-26T15:46:07.936Z,99.90
2019-01-26T15:48:39.841Z,99.90
2019-01-26T15:51:11.753Z,99.90
2019-01-26T15:53:44.537Z,99.90
2019-01-26T15:56:16.775Z,99.90
2019-01-26T15:58:48.787Z,99.90
2019-01-26T16:01:20.693Z,99.90
2019-01-26T16:03:52.721Z,99.90
2019-01-26T16:06:24.591Z,99.90
2019-01-26T16:08:56.543Z,99.90
2019-01-26T16:11:28.453Z,99.90
2019-01-26T16:14:00.378Z,99.90
2019-01-26T16:16:32.279Z,99.90
2019-01-26T16:19:04.202Z,99.90
2019-01-26T16:21:36.437Z,99.90
2019-01-26T16:24:08.546Z,99.90
2019-01-26T16:26:40.417Z,99.90
2019-01-26T16:29:12.335Z,99.90
2019-01-26T16:31:44.339Z,99.90
2019-01-26T16:34:16.329Z,99.90
2019-01-26T16:36:48.230Z,99.90
2019-01-26T16:39:20.436Z,99.90
2019-01-26T16:41:52.417Z,99.90
2019-01-26T16:44:24.328Z,99.90
2019-01-26T16:46:56.244Z,99.90
2019-01-26T16:49:28.150Z,99.90
2019-01-26T16:52:00.057Z,99.90
2019-01-26T16:54:31.985Z,99.90
2019-01-26T16:57:03.893Z,99.90
2019-01-26T16:59:35.811Z,99.90
2019-01-26T17:02:08.041Z,99.90
2019-01-26T17:04:40.127Z,99.90
2019-01-26T17:07:12.031Z,99.90
2019-01-26T17:09:43.974Z,99.90
2019-01-26T17:12:16.070Z,99.90
2019-01-26T17:14:48.079Z,99.90
2019-01-26T17:17:19.952Z,99.90
2019-01-26T17:19:51.887Z,99.90
2019-01-26T17:22:23.797Z,99.90
2019-01-26T17:24:55.708Z,99.90
2019-01-26T17:27:27.615Z,99.90
2019-01-26T17:29:59.534Z,99.90
2019-01-26T17:32:31.555Z,99.90
2019-01-26T17:35:03.430Z,99.90
2019-01-26T17:37:35.459Z,99.90
2019-01-26T17:40:11.140Z,99.90
2019-01-26T17:42:43.052Z,99.90
2019-01-26T17:45:16.247Z,99.90
2019-01-26T17:47:50.096Z,99.90
2019-01-26T17:50:24.497Z,99.90
2019-01-26T17:52:56.511Z,99.90
2019-01-26T17:55:28.415Z,99.90
2019-01-26T17:58:00.319Z,99.90
2019-01-26T18:00:48.055Z,99.90
2019-01-26T18:03:20.036Z,99.90
2019-01-26T18:05:52.046Z,99.90
2019-01-26T18:08:24.049Z,99.90
2019-01-26T18:10:56.006Z,99.90
2019-01-26T18:13:27.909Z,99.90
2019-01-26T18:15:59.807Z,99.90
2019-01-26T18:18:31.718Z,99.90
2019-01-26T18:21:03.631Z,99.90
2019-01-26T18:23:35.714Z,99.90
2019-01-26T18:26:08.025Z,99.90
2019-01-26T18:28:39.937Z,99.90
2019-01-26T18:31:11.860Z,99.90
2019-01-26T18:33:43.770Z,99.90
2019-01-26T18:36:15.687Z,99.90
2019-01-26T18:38:47.715Z,99.90
2019-01-26T18:41:19.591Z,99.90
2019-01-26T18:43:51.509Z,99.90
2019-01-26T18:46:23.415Z,99.90
2019-01-26T18:48:56.268Z,99.90
2019-01-26T18:51:28.179Z,99.90
2019-01-26T18:54:00.083Z,99.90
2019-01-26T18:56:32.220Z,99.90
2019-01-26T18:59:04.098Z,99.90
2019-01-26T19:01:36.278Z,99.90
2019-01-26T19:04:41.145Z,99.90
2019-01-26T19:07:13.184Z,99.90
2019-01-26T19:09:45.444Z,99.90
2019-01-26T19:12:17.328Z,99.90
2019-01-26T19:14:49.230Z,99.90
2019-01-26T19:17:21.156Z,99.90
2019-01-26T19:19:53.179Z,99.90
2019-01-26T19:22:25.056Z,99.90
2019-01-26T19:24:56.964Z,99.90
2019-01-26T19:27:28.877Z,99.90
2019-01-26T19:30:00.775Z,99.90
2019-01-26T19:32:32.681Z,99.90
2019-01-26T19:35:05.140Z,99.90
2019-01-26T19:37:37.238Z,99.90
2019-01-26T19:40:18.689Z,99.90
2019-01-26T19:42:50.750Z,99.90
2019-01-26T19:45:23.199Z,99.90
2019-01-26T19:47:55.291Z,99.90
2019-01-26T19:50:27.291Z,99.90
2019-01-26T19:52:59.289Z,99.90
2019-01-26T19:55:31.286Z,99.90
2019-01-26T19:58:03.282Z,99.90
2019-01-26T20:00:35.277Z,99.90
2019-01-26T20:03:07.571Z,99.90
2019-01-26T20:05:39.537Z,99.90
2019-01-26T20:08:11.760Z,99.90
2019-01-26T20:10:43.698Z,99.90
2019-01-26T20:13:15.617Z,99.90
2019-01-26T20:15:48.655Z,99.90
2019-01-26T20:18:20.888Z,99.90
2019-01-26T20:20:52.795Z,99.90
2019-01-26T20:23:24.719Z,99.90
2019-01-26T20:25:56.736Z,99.90
2019-01-26T20:28:28.752Z,99.90
2019-01-26T20:31:00.654Z,99.90
2019-01-26T20:33:32.564Z,99.90
2019-01-26T20:36:04.578Z,99.90
2019-01-26T20:38:36.497Z,99.90
2019-01-26T20:41:08.416Z,99.90
2019-01-26T20:43:40.360Z,99.90
2019-01-26T20:46:12.315Z,99.90
2019-01-26T20:48:44.216Z,99.90
2019-01-26T20:51:16.122Z,99.90
2019-01-26T20:53:50.430Z,99.90
2019-01-26T20:56:22.341Z,99.90
2019-01-26T20:58:54.242Z,99.90
2019-01-26T21:01:26.163Z,99.90
2019-01-26T21:03:58.071Z,99.90
2019-01-26T21:06:30.280Z,99.90
2019-01-26T21:09:02.183Z,99.90
2019-01-26T21:11:34.129Z,99.90
2019-01-26T21:14:06.557Z,99.90
2019-01-26T21:16:38.465Z,99.90
2019-01-26T21:19:10.683Z,99.90
2019-01-26T21:21:42.588Z,99.90
2019-01-26T21:24:14.589Z,99.90
2019-01-26T21:26:46.494Z,99.90
2019-01-26T21:29:18.407Z,99.90
2019-01-26T21:31:50.309Z,99.90
2019-01-26T21:34:22.210Z,99.90
2019-01-26T21:36:54.117Z,99.90
2019-01-26T21:39:26.035Z,99.90
2019-01-26T21:41:57.931Z,99.90
2019-01-26T21:44:29.846Z,99.90
2019-01-26T21:47:01.752Z,99.90
2019-01-26T21:49:33.731Z,99.90
2019-01-26T21:52:05.756Z,99.90
2019-01-26T21:54:37.657Z,99.90
2019-01-26T21:57:09.562Z,99.90
2019-01-26T21:59:41.518Z,99.90
2019-01-26T22:02:13.586Z,99.90
2019-01-26T22:04:45.602Z,99.90
2019-01-26T22:07:17.548Z,99.90
2019-01-26T22:09:49.577Z,99.90
2019-01-26T22:12:21.492Z,99.90
2019-01-26T22:14:53.393Z,99.90
2019-01-26T22:17:25.401Z,99.90
2019-01-26T22:19:57.296Z,99.90
2019-01-26T22:22:29.210Z,99.90
2019-01-26T22:25:01.110Z,99.90
2019-01-26T22:27:33.015Z,99.90
2019-01-26T22:30:06.149Z,99.90
2019-01-26T22:32:38.163Z,99.90
2019-01-26T22:35:10.280Z,99.90
2019-01-26T22:37:42.181Z,99.90
2019-01-26T22:40:19.948Z,99.90
2019-01-26T22:42:51.956Z,99.90
2019-01-26T22:45:24.969Z,99.90
2019-01-26T22:47:56.982Z,99.90
2019-01-26T22:50:29.227Z,99.90
2019-01-26T22:53:01.237Z,99.90
2019-01-26T22:55:33.147Z,99.90
2019-01-26T22:58:05.695Z,99.90
2019-01-26T23:00:58.825Z,99.90
2019-01-26T23:04:18.626Z,99.90
2019-01-26T23:07:39.831Z,99.90
2019-01-26T23:11:12.557Z,99.90
2019-01-26T23:14:18.393Z,99.90
2019-01-26T23:17:46.406Z,99.90
2019-01-26T23:21:08.433Z,99.90
2019-01-26T23:25:05.700Z,99.90
2019-01-26T23:28:54.535Z,99.90
2019-01-26T23:31:26.534Z,99.90
2019-01-26T23:33:58.405Z,99.90
2019-01-26T23:36:30.280Z,99.90
2019-01-26T23:39:02.749Z,99.90
2019-01-26T23:41:34.645Z,99.90
2019-01-26T23:44:06.670Z,99.90
2019-01-26T23:46:38.541Z,99.90
2019-01-26T23:49:10.465Z,99.90
2019-01-26T23:51:42.353Z,99.90
2019-01-26T23:54:14.266Z,99.90
2019-01-26T23:56:46.265Z,99.90
2019-01-26T23:59:18.131Z,99.90
